• Join FlightAware (Why Join?)
  • Login
  • US Flag GB Flag 
17:50 EST


 

Airport Tracker/Info


-or-


 

Live Flight TrackerFlight Track Log ✈ DAL268 ✈ 24-May-2013 ✈ KATL - KJFK

Flight Track Log - Related Links

Times and Time Zones

All times are in EDT time to prevent confusion due to time zone crossing. See the DAL268 flight status page for this flight to view local times or setup timezone preferences in your user account.

Time Position Orientation Groundspeed Altitude Reporting Facility
EDT Latitude Longitude Course Direction KTS MPH feet Rate Location/Type
18:21 33.6333 -84.4833 64° Northeast 180 207 2,300  Level Atlanta TRACON
18:21 33.6167 -84.5333 248° West 252 290 3,300 1,740 Climbing Atlanta TRACON
18:23 33.7111 -83.9998 101° East  Level FlightAware Approximate
18:23 33.5333 -84.5833 207° Southwest 293 337 5,800  Level Atlanta TRACON
18:23 33.4667 -84.5667 168° South 309 356 8,000 1,860 Climbing Atlanta TRACON
18:24 33.6877 -83.8591 101° East  Level FlightAware Approximate
18:25 33.6642 -83.7184 101° East  Level FlightAware Approximate
18:25 33.4556 -84.3825 94° East 329 379 10,900  Level Atlanta Center
18:26 33.6708 -83.5824 64° Northeast  Level FlightAware Approximate
18:26 33.4622 -84.2581 86° East 348 400 12,000  Level Atlanta Center
18:27 33.5144 -84.1408 62° Northeast 375 432 13,800 1,920 Climbing Atlanta Center
18:28 33.5667 -84.0139 64° Northeast 407 468 15,900 1,920 Climbing Atlanta Center
18:29 33.6125 -83.8792 68° East 430 495 17,700 1,620 Climbing Atlanta Center
18:30 33.6436 -83.7294 76° East 451 519 19,200 1,680 Climbing Atlanta Center
18:31 33.6828 -83.5819 72° East 456 525 21,100 1,500 Climbing Atlanta Center
18:32 33.7406 -83.4417 64° Northeast 461 531 22,300 900 Climbing Atlanta Center
18:33 33.7919 -83.3114 65° Northeast 461 531 23,000 600 Climbing Atlanta Center
18:34 33.8517 -83.1683 63° Northeast 466 536 23,500 900 Climbing Atlanta Center
18:35 33.9089 -83.0250 64° Northeast 466 536 24,900 1,500 Climbing Atlanta Center
18:36 33.9661 -82.8817 64° Northeast 471 542 26,600 1,500 Climbing Atlanta Center
18:37 34.0253 -82.7356 64° Northeast 471 542 27,900 1,200 Climbing Atlanta Center
18:38 34.0800 -82.5892 66° East 471 542 29,100 1,140 Climbing Atlanta Center
18:39 34.1367 -82.4500 64° Northeast 471 542 30,200 900 Climbing Atlanta Center
18:40 34.1953 -82.3058 64° Northeast 471 542 31,000 360 Climbing Atlanta Center
18:41 34.2494 -82.1642 65° Northeast 465 535 31,000  Level Atlanta Center
18:42 34.3161 -82.0242 60° Northeast 465 535 31,000  Level Atlanta Center
18:43 34.3828 -81.8917 59° Northeast 470 541 31,100 420 Climbing Atlanta Center
18:44 34.4514 -81.7539 59° Northeast 470 541 31,900 600 Climbing Atlanta Center
18:45 34.5197 -81.6161 59° Northeast 470 541 32,300 540 Climbing Atlanta Center
18:46 34.5878 -81.4803 59° Northeast 478 550 33,000 300 Climbing Atlanta Center
18:47 34.6597 -81.3342 59° Northeast 467 537 33,000  Level Atlanta Center
18:48 34.7275 -81.1956 59° Northeast 467 537 33,000  Level Atlanta Center
18:49 34.7931 -81.0567 60° Northeast 473 544 33,000  Level Atlanta Center
18:50 34.8586 -80.9203 60° Northeast 473 544 33,000  Level Atlanta Center
18:51 34.9300 -80.7781 58° Northeast 483 556 33,000  Level Atlanta Center
18:53 35.0483 -80.5289 60° Northeast 468 539 33,000  Level Washington Center
18:54 35.1147 -80.3883 60° Northeast 473 544 33,000  Level Washington Center
18:55 35.1875 -80.2353 60° Northeast 467 537 33,000  Level Washington Center
18:56 35.2533 -80.0939 60° Northeast 472 543 33,000  Level Washington Center
18:57 35.3164 -79.9703 58° Northeast 472 543 33,000  Level Washington Center
18:58 35.3842 -79.8261 60° Northeast 472 543 33,000  Level Washington Center
18:59 35.4458 -79.6764 63° Northeast 472 543 33,000  Level Washington Center
19:00 35.4931 -79.5131 70° East 489 563 33,000  Level Washington Center
19:01 35.5425 -79.3317 71° East 506 582 33,000  Level Washington Center
19:02 35.5847 -79.1856 70° East 506 582 33,000  Level Washington Center
19:03 35.6292 -79.0239 71° East 501 577 33,000  Level Washington Center
19:04 35.6753 -78.8597 71° East 501 577 33,000  Level Washington Center
19:05 35.7217 -78.6928 71° East 501 577 33,000  Level Washington Center
19:06 35.7656 -78.5231 72° East 506 582 33,000  Level Washington Center
19:07 35.8175 -78.3583 69° East 506 582 33,000  Level Washington Center
19:08 35.8961 -78.1944 59° Northeast 506 582 33,000  Level Washington Center
19:09 35.9703 -78.0481 58° Northeast 500 575 33,000  Level Washington Center
19:10 36.0464 -77.8964 58° Northeast 505 581 33,000  Level Washington Center
19:11 36.1181 -77.7442 60° Northeast 510 587 33,000  Level Washington Center
19:12 36.1978 -77.5894 57° Northeast 510 587 33,000  Level Washington Center
19:13 36.2711 -77.4417 58° Northeast 510 587 33,000  Level Washington Center
19:14 36.3464 -77.2889 59° Northeast 510 587 33,000  Level Washington Center
19:15 36.4214 -77.1381 58° Northeast 510 587 33,000  Level Washington Center
19:16 36.4986 -76.9847 58° Northeast 510 587 33,000  Level Washington Center
19:17 36.5753 -76.8358 57° Northeast 510 587 33,000 -60 Level Washington Center
19:18 36.6558 -76.6872 56° Northeast 510 587 32,900  Descending Washington Center
19:19 36.7656 -76.5694 41° Northeast 515 593 33,000  Climbing Washington Center
19:20 36.8831 -76.4697 34° Northeast 508 585 33,000  Level Washington Center
19:21 36.9922 -76.3797 33° Northeast 508 585 33,000  Level Washington Center
19:22 37.1117 -76.2819 33° Northeast 508 585 33,000  Level Washington Center
19:23 37.2289 -76.1786 35° Northeast 508 585 33,000  Level Washington Center
19:24 37.3650 -76.0725 32° Northeast 514 592 33,000 -60 Level Washington Center
19:25 37.4822 -75.9686 35° Northeast 519 597 32,900  Descending Washington Center
19:26 37.5806 -75.8881 33° Northeast 519 597 33,000  Climbing Washington Center
19:27 37.7081 -75.7756 35° Northeast 514 592 33,000 -60 Level Washington Center
19:28 37.8269 -75.6706 35° Northeast 514 592 32,900 -60 Descending Washington Center
19:29 37.9478 -75.5656 34° Northeast 514 592 32,900  Level Washington Center
19:30 38.0689 -75.4625 34° Northeast 514 592 33,000  Climbing Washington Center
19:31 38.2042 -75.3831 25° Northeast 514 592 33,000 -60 Level Washington Center
19:32 38.3375 -75.2925 28° Northeast 519 597 32,900  Descending Washington Center
19:33 38.4664 -75.2097 27° Northeast 525 604 33,000  Climbing Washington Center
19:34 38.5975 -75.1242 27° Northeast 520 598 33,000 -60 Level Washington Center
19:35 38.7306 -75.0408 26° Northeast 520 598 32,900  Descending Washington Center
19:36 38.8614 -74.9544 27° Northeast 520 598 33,000 -1,320 Climbing Washington Center
19:37 38.9944 -74.8678 27° Northeast 525 604 30,400 -2,460 Descending Washington Center
19:38 39.1000 -74.7572 39° Northeast 525 604 28,100 -2,460 Descending Washington Center
19:39 39.1675 -74.6039 60° Northeast 479 551 25,500 -2,280 Descending Washington Center
19:41 39.2936 -74.3656 56° Northeast 497 572 22,200 -1,920 Descending New York Center
19:42 39.4272 -74.2944 22° Northeast 497 572 20,600 -1,620 Descending New York Center
19:43 39.5656 -74.2717 North 477 549 19,000 -900 Descending New York Center
19:44 39.6661 -74.1850 34° Northeast 441 507 18,900 -1,380 Descending New York Center
19:45 39.7631 -74.0789 40° Northeast 418 481 16,300 -2,280 Descending New York Center
19:46 39.8489 -73.9883 39° Northeast 405 466 14,500 -1,860 Descending New York Center
19:47 39.9425 -73.9197 29° Northeast 393 452 12,600 -1,260 Descending New York Center
19:48 40.0211 -73.8636 29° Northeast 366 421 12,000 -360 Descending New York Center
19:49 40.1058 -73.8917 346° North 281 323 12,000  Level New York Center
19:50 40.0764 -73.9719 244° Southwest 144 166 12,000  Level New York Center
19:51 40.0147 -74.0178 210° Southwest 153 176 12,000  Level New York Center
19:52 39.9531 -74.0608 208° Southwest 250 288 12,000  Level New York Center
19:53 39.8839 -74.0739 188° South 266 306 12,000  Level New York Center
19:54 39.8850 -73.9603 89° East 196 226 12,000  Level New York Center
19:55 39.9636 -73.9017 30° Northeast 192 221 12,000  Level New York Center
19:56 40.0486 -73.8458 27° Northeast 290 334 12,000  Level New York Center
19:57 40.1075 -73.9028 324° Northwest 267 307 12,000  Level New York Center
19:58 40.0722 -73.9769 238° Southwest 172 198 12,000  Level New York Center
19:59 39.9978 -74.0278 208° Southwest 197 227 12,000  Level New York Center
20:00 39.9319 -74.0761 209° Southwest 262 302 12,000 -180 Level New York Center
20:01 39.8639 -74.0514 164° South 267 307 11,700 -540 Descending New York Center
20:02 39.8786 -73.9656 77° East 208 239 11,000 -360 Descending New York Center
20:03 39.9508 -73.9119 30° Northeast 217 250 11,000  Level New York Center
20:04 40.0150 -73.8578 33° Northeast 253 291 11,000 -240 Level New York Center
20:05 40.0808 -73.8092 29° Northeast 271 312 10,600 -900 Descending New York Center
20:06 40.1406 -73.7575 33° Northeast 271 312 9,300 -1,380 Descending New York Center
20:07 40.2042 -73.7086 30° Northeast 260 299 7,900 -1,320 Descending New York Center
20:08 40.2617 -73.6650 30° Northeast 255 293 6,700 -1,260 Descending New York Center
20:09 40.3167 -73.6236 30° Northeast 237 273 5,500 -1,200 Descending New York Center
20:10 40.3697 -73.5850 29° Northeast 222 255 4,300 -780 Descending New York Center
20:11 40.3797 -73.5200 79° East 187 215 4,000 -180 Descending New York Center
20:12 40.3833 -73.4500 86° East 182 209 4,000  Level New York TRACON
20:13 40.4167 -73.4000 49° Northeast 183 211 4,000 -420 Level New York TRACON
20:14 40.4500 -73.3833 21° North 178 205 3,200 -900 Descending New York TRACON
20:15 40.4833 -73.4167 323° Northwest 152 175 2,300 -600 Descending New York TRACON
20:16 40.5000 -73.4667 294° West 152 175 2,000 -180 Descending New York TRACON
20:17 40.5333 -73.5167 311° West 155 178 2,000  Level New York TRACON
20:18 40.5500 -73.5500 303° West 149 171 2,000  Level New York TRACON